createdAt,value
2017-07-15T00:01:46.624Z,97.40
2017-07-15T00:04:14.171Z,97.40
2017-07-15T00:06:41.729Z,97.90
2017-07-15T00:09:09.613Z,98.50
2017-07-15T00:11:37.193Z,98.40
2017-07-15T00:14:04.733Z,98.40
2017-07-15T00:16:32.628Z,98.80
2017-07-15T00:19:00.182Z,98.90
2017-07-15T00:21:27.831Z,98.90
2017-07-15T00:23:55.391Z,99.30
2017-07-15T00:26:23.452Z,99.00
2017-07-15T00:28:51.049Z,99.20
2017-07-15T00:31:18.673Z,99.10
2017-07-15T00:33:46.300Z,98.50
2017-07-15T00:36:13.828Z,99.30
2017-07-15T00:38:41.773Z,97.80
2017-07-15T00:41:09.304Z,97.30
2017-07-15T00:43:36.821Z,97.40
2017-07-15T00:46:04.708Z,97.90
2017-07-15T00:48:32.294Z,98.50
2017-07-15T00:50:59.844Z,98.90
2017-07-15T00:53:27.461Z,99.40
2017-07-15T00:55:55.672Z,99.30
2017-07-15T00:58:23.188Z,98.80
2017-07-15T01:00:51.276Z,97.90
2017-07-15T01:03:18.553Z,98.50
2017-07-15T01:05:46.105Z,98.20
2017-07-15T01:08:13.767Z,97.50
2017-07-15T01:10:41.324Z,97.50
2017-07-15T01:13:08.840Z,97.30
2017-07-15T01:15:37.360Z,98.00
2017-07-15T01:18:04.919Z,98.30
2017-07-15T01:20:32.442Z,98.90
2017-07-15T01:23:00.758Z,98.00
2017-07-15T01:25:28.287Z,98.20
2017-07-15T01:27:56.186Z,97.60
2017-07-15T01:30:24.769Z,97.60
2017-07-15T01:32:52.321Z,97.50
2017-07-15T01:35:20.293Z,97.70
2017-07-15T01:37:47.925Z,98.00
2017-07-15T01:40:15.356Z,98.30
2017-07-15T01:42:43.431Z,97.50
2017-07-15T01:45:10.957Z,97.50
2017-07-15T01:47:38.487Z,97.30
2017-07-15T01:50:06.177Z,97.80
2017-07-15T01:52:33.749Z,97.70
2017-07-15T01:55:01.268Z,97.50
2017-07-15T01:57:28.893Z,97.80
2017-07-15T01:59:56.408Z,98.40
2017-07-15T02:02:24.022Z,96.70
2017-07-15T02:04:51.841Z,96.80
2017-07-15T02:07:19.450Z,97.20
2017-07-15T02:09:47.002Z,97.30
2017-07-15T02:12:14.622Z,97.70
2017-07-15T02:14:42.153Z,97.50
2017-07-15T02:17:09.740Z,97.00
2017-07-15T02:19:37.687Z,96.70
2017-07-15T02:22:05.271Z,96.40
2017-07-15T02:24:32.792Z,96.90
2017-07-15T02:27:00.496Z,96.70
2017-07-15T02:29:28.056Z,97.10
2017-07-15T02:31:55.786Z,96.50
2017-07-15T02:34:26.340Z,96.60
2017-07-15T02:36:53.994Z,97.00
2017-07-15T02:39:21.942Z,97.20
2017-07-15T02:41:49.474Z,96.60
2017-07-15T02:44:17.115Z,97.00
2017-07-15T02:46:48.044Z,97.70
2017-07-15T02:49:15.557Z,96.70
2017-07-15T02:51:43.185Z,96.50
2017-07-15T02:54:10.752Z,95.70
2017-07-15T02:56:38.421Z,96.40
2017-07-15T02:59:06.013Z,97.50
2017-07-15T03:01:33.586Z,96.70
2017-07-15T03:04:01.117Z,96.50
2017-07-15T03:06:28.651Z,95.90
2017-07-15T03:08:56.255Z,96.00
2017-07-15T03:11:23.792Z,96.20
2017-07-15T03:13:51.373Z,96.00
2017-07-15T03:16:19.173Z,96.80
2017-07-15T03:18:46.708Z,96.80
2017-07-15T03:21:14.324Z,96.90
2017-07-15T03:23:41.948Z,97.10
2017-07-15T03:26:09.477Z,97.20
2017-07-15T03:28:37.009Z,97.10
2017-07-15T03:31:06.125Z,96.50
2017-07-15T03:33:33.400Z,97.00
2017-07-15T03:36:00.951Z,97.00
2017-07-15T03:38:29.557Z,97.30
2017-07-15T03:40:57.071Z,97.30
2017-07-15T03:43:24.579Z,97.30
2017-07-15T03:45:52.155Z,97.10
2017-07-15T03:48:19.825Z,97.50
2017-07-15T03:50:47.363Z,96.80
2017-07-15T03:53:14.918Z,97.10
2017-07-15T03:55:42.436Z,97.00
2017-07-15T03:58:09.944Z,97.00
2017-07-15T04:00:37.552Z,97.40
2017-07-15T04:03:05.071Z,97.70
2017-07-15T04:05:32.649Z,97.60
2017-07-15T04:08:00.282Z,97.50
2017-07-15T04:10:27.795Z,97.90
2017-07-15T04:12:55.331Z,98.20
2017-07-15T04:15:22.944Z,98.10
2017-07-15T04:17:50.467Z,98.30
2017-07-15T04:20:18.016Z,98.70
2017-07-15T04:22:46.511Z,98.60
2017-07-15T04:25:14.036Z,98.00
2017-07-15T04:27:41.584Z,98.70
2017-07-15T04:30:09.238Z,98.00
2017-07-15T04:32:36.756Z,98.10
2017-07-15T04:35:04.314Z,97.90
2017-07-15T04:37:31.907Z,96.80
2017-07-15T04:39:59.424Z,97.30
2017-07-15T04:42:26.944Z,97.30
2017-07-15T04:44:54.659Z,97.00
2017-07-15T04:47:22.180Z,96.80
2017-07-15T04:49:50.035Z,97.00
2017-07-15T04:52:17.840Z,96.70
2017-07-15T04:54:45.412Z,95.70
2017-07-15T04:57:12.952Z,95.30
2017-07-15T04:59:40.571Z,94.80
2017-07-15T05:02:08.107Z,95.10
2017-07-15T05:04:35.658Z,92.90
2017-07-15T05:07:03.212Z,93.10
2017-07-15T05:09:30.739Z,93.20
2017-07-15T05:11:58.298Z,92.50
2017-07-15T05:14:25.856Z,92.70
2017-07-15T05:16:53.372Z,92.60
2017-07-15T05:19:20.981Z,93.10
2017-07-15T05:21:48.580Z,93.40
2017-07-15T05:24:16.091Z,93.40
2017-07-15T05:26:43.606Z,94.20
2017-07-15T05:29:11.541Z,94.50
2017-07-15T05:31:39.100Z,95.30
2017-07-15T05:34:06.712Z,94.60
2017-07-15T05:36:34.996Z,93.60
2017-07-15T05:39:02.505Z,92.80
2017-07-15T05:41:30.071Z,93.60
2017-07-15T05:43:57.668Z,93.00
2017-07-15T05:46:25.171Z,92.90
2017-07-15T05:48:52.684Z,93.30
2017-07-15T05:51:20.275Z,92.60
2017-07-15T05:53:47.812Z,92.80
2017-07-15T05:56:15.322Z,92.10
2017-07-15T05:58:42.907Z,90.40
2017-07-15T06:01:10.417Z,90.20
2017-07-15T06:03:37.937Z,88.80
2017-07-15T06:06:05.528Z,90.00
2017-07-15T06:08:33.086Z,90.60
2017-07-15T06:11:00.663Z,90.50
2017-07-15T06:13:28.224Z,91.10
2017-07-15T06:15:55.777Z,90.70
2017-07-15T06:18:23.311Z,90.50
2017-07-15T06:20:50.856Z,91.80
2017-07-15T06:23:18.371Z,90.40
2017-07-15T06:25:45.891Z,89.50
2017-07-15T06:28:13.552Z,90.70
2017-07-15T06:30:41.065Z,91.20
2017-07-15T06:33:08.588Z,91.40
2017-07-15T06:35:36.164Z,91.00
2017-07-15T06:38:03.682Z,89.80
2017-07-15T06:40:31.194Z,88.90
2017-07-15T06:42:59.115Z,87.40
2017-07-15T06:45:26.643Z,85.30
2017-07-15T06:47:54.201Z,83.70
2017-07-15T06:50:21.780Z,76.50
2017-07-15T06:52:49.288Z,78.20
2017-07-15T06:55:16.813Z,77.50
2017-07-15T06:57:44.526Z,73.80
2017-07-15T07:00:12.160Z,69.50
2017-07-15T07:02:39.665Z,71.90
2017-07-15T07:05:07.227Z,69.00
2017-07-15T07:07:34.742Z,64.80
2017-07-15T07:10:02.249Z,65.40
2017-07-15T07:12:29.903Z,63.10
2017-07-15T07:14:57.572Z,64.50
2017-07-15T07:17:25.147Z,66.00
2017-07-15T07:19:52.662Z,67.20
2017-07-15T07:22:20.226Z,68.10
2017-07-15T07:24:47.939Z,65.60
2017-07-15T07:27:15.459Z,65.50
2017-07-15T07:29:43.063Z,65.90
2017-07-15T07:32:10.664Z,66.30
2017-07-15T07:34:38.241Z,67.50
2017-07-15T07:37:06.227Z,65.90
2017-07-15T07:39:33.744Z,67.00
2017-07-15T07:42:01.307Z,64.80
2017-07-15T07:44:28.906Z,64.90
2017-07-15T07:46:56.412Z,65.20
2017-07-15T07:49:23.958Z,65.70
2017-07-15T07:51:51.519Z,64.00
2017-07-15T07:54:19.079Z,62.10
2017-07-15T07:56:46.591Z,59.20
2017-07-15T07:59:14.484Z,57.10
2017-07-15T08:01:42.498Z,55.50
2017-07-15T08:04:11.100Z,55.40
2017-07-15T08:06:38.731Z,57.20
2017-07-15T08:09:06.565Z,57.10
2017-07-15T08:11:34.756Z,54.60
2017-07-15T08:14:02.362Z,56.10
2017-07-15T08:16:29.936Z,55.70
2017-07-15T08:18:57.954Z,57.50
2017-07-15T08:21:25.467Z,56.20
2017-07-15T08:23:53.024Z,55.00
2017-07-15T08:26:21.137Z,51.20
2017-07-15T08:28:48.655Z,50.30
2017-07-15T08:31:16.224Z,51.40
2017-07-15T08:33:44.339Z,51.60
2017-07-15T08:36:11.851Z,51.20
2017-07-15T08:38:39.660Z,52.10
2017-07-15T08:41:07.216Z,50.90
2017-07-15T08:43:34.722Z,48.70
2017-07-15T08:46:02.288Z,46.60
2017-07-15T08:48:30.109Z,45.30
2017-07-15T08:50:57.612Z,44.80
2017-07-15T08:53:25.132Z,43.30
2017-07-15T08:55:52.931Z,42.50
2017-07-15T08:58:20.530Z,45.60
2017-07-15T09:00:48.047Z,48.70
2017-07-15T09:03:15.703Z,48.50
2017-07-15T09:05:43.212Z,50.10
2017-07-15T09:08:10.733Z,48.80
2017-07-15T09:10:38.589Z,47.20
2017-07-15T09:13:06.183Z,45.10
2017-07-15T09:15:33.691Z,45.70
2017-07-15T09:18:01.503Z,42.80
2017-07-15T09:20:29.028Z,39.40
2017-07-15T09:22:56.595Z,39.50
2017-07-15T09:25:24.219Z,40.40
2017-07-15T09:27:51.824Z,40.80
2017-07-15T09:30:19.332Z,41.00
2017-07-15T09:32:46.899Z,42.90
2017-07-15T09:35:14.456Z,42.30
2017-07-15T09:37:42.031Z,40.40
2017-07-15T09:40:09.776Z,38.80
2017-07-15T09:42:37.359Z,41.20
2017-07-15T09:45:04.891Z,40.90
2017-07-15T09:47:32.792Z,43.20
2017-07-15T09:50:00.327Z,43.40
2017-07-15T09:52:27.972Z,41.00
2017-07-15T09:54:55.547Z,41.50
2017-07-15T09:57:23.059Z,42.70
2017-07-15T09:59:50.563Z,43.90
2017-07-15T10:02:18.158Z,41.80
2017-07-15T10:04:45.735Z,42.90
2017-07-15T10:07:13.293Z,42.10
2017-07-15T10:09:40.954Z,42.70
2017-07-15T10:12:08.477Z,43.40
2017-07-15T10:14:35.892Z,44.10
2017-07-15T10:17:03.795Z,42.10
2017-07-15T10:19:31.311Z,43.90
2017-07-15T10:21:58.876Z,45.50
2017-07-15T10:24:26.462Z,46.00
2017-07-15T10:26:53.991Z,45.10
2017-07-15T10:29:21.527Z,45.70
2017-07-15T10:31:49.401Z,45.10
2017-07-15T10:34:16.933Z,43.50
2017-07-15T10:36:44.500Z,44.50
2017-07-15T10:39:12.103Z,43.40
2017-07-15T10:41:39.608Z,44.60
2017-07-15T10:44:07.393Z,43.40
2017-07-15T10:46:35.054Z,42.50
2017-07-15T10:49:02.700Z,43.40
2017-07-15T10:51:30.204Z,40.90
2017-07-15T10:53:58.132Z,39.80
2017-07-15T10:56:25.642Z,39.00
2017-07-15T10:58:53.153Z,38.50
2017-07-15T11:01:20.827Z,37.30
2017-07-15T11:03:48.368Z,39.00
2017-07-15T11:06:15.953Z,41.50
2017-07-15T11:08:43.508Z,38.70
2017-07-15T11:11:11.108Z,39.00
2017-07-15T11:13:38.678Z,39.60
2017-07-15T11:16:07.376Z,38.00
2017-07-15T11:18:34.891Z,38.00
2017-07-15T11:21:02.407Z,37.10
2017-07-15T11:23:30.000Z,38.60
2017-07-15T11:25:57.529Z,39.10
2017-07-15T11:28:25.082Z,37.80
2017-07-15T11:30:52.727Z,37.90
2017-07-15T11:33:20.549Z,37.70
2017-07-15T11:35:48.119Z,35.40
2017-07-15T11:38:15.941Z,36.70
2017-07-15T11:40:43.489Z,37.40
2017-07-15T11:43:11.048Z,35.80
2017-07-15T11:45:38.994Z,33.30
2017-07-15T11:48:06.585Z,30.70
2017-07-15T11:50:34.264Z,35.00
2017-07-15T11:53:02.214Z,34.30
2017-07-15T11:55:30.521Z,34.00
2017-07-15T11:57:58.380Z,34.30
2017-07-15T12:00:27.000Z,34.70
2017-07-15T12:02:54.834Z,34.90
2017-07-15T12:05:22.652Z,35.60
2017-07-15T12:07:51.497Z,35.10
2017-07-15T12:10:19.123Z,35.80
2017-07-15T12:12:47.289Z,35.00
2017-07-15T12:15:15.275Z,35.30
2017-07-15T12:17:42.797Z,33.10
2017-07-15T12:20:10.304Z,33.20
2017-07-15T12:22:38.637Z,32.50
2017-07-15T12:25:06.148Z,32.20
2017-07-15T12:27:33.751Z,29.40
2017-07-15T12:30:02.217Z,30.30
2017-07-15T12:32:29.843Z,31.70
2017-07-15T12:34:57.357Z,34.40
2017-07-15T12:37:24.913Z,33.10
2017-07-15T12:39:52.436Z,33.00
2017-07-15T12:42:19.940Z,29.90
2017-07-15T12:44:47.779Z,28.80
2017-07-15T12:47:15.403Z,28.20
2017-07-15T12:49:42.912Z,28.20
2017-07-15T12:52:10.811Z,29.80
2017-07-15T12:54:38.321Z,30.00
2017-07-15T12:57:05.832Z,31.30
2017-07-15T12:59:33.431Z,29.80
2017-07-15T13:02:01.856Z,30.90
2017-07-15T13:04:29.420Z,33.60
2017-07-15T13:06:57.017Z,34.90
2017-07-15T13:09:24.685Z,32.50
2017-07-15T13:11:52.306Z,32.10
2017-07-15T13:14:19.900Z,30.20
2017-07-15T13:16:48.260Z,28.80
2017-07-15T13:19:15.811Z,28.30
2017-07-15T13:21:43.333Z,29.50
2017-07-15T13:24:10.880Z,29.80
2017-07-15T13:26:38.499Z,30.90
2017-07-15T13:29:06.011Z,32.10
2017-07-15T13:31:33.911Z,31.50
2017-07-15T13:34:01.418Z,30.40
2017-07-15T13:36:28.941Z,32.00
2017-07-15T13:38:56.576Z,32.60
2017-07-15T13:41:24.109Z,34.00
2017-07-15T13:43:51.636Z,35.60
2017-07-15T13:46:19.585Z,36.60
2017-07-15T13:48:47.097Z,35.30
2017-07-15T13:51:14.632Z,33.30
2017-07-15T13:53:42.497Z,30.30
2017-07-15T13:56:10.005Z,30.40
2017-07-15T13:58:43.408Z,28.30
2017-07-15T14:01:12.539Z,29.50
2017-07-15T14:03:40.128Z,32.90
2017-07-15T14:06:08.496Z,36.00
2017-07-15T14:08:36.005Z,35.80
2017-07-15T14:11:03.723Z,35.70
2017-07-15T14:13:31.276Z,35.20
2017-07-15T14:15:58.789Z,35.00
2017-07-15T14:18:26.300Z,32.50
2017-07-15T14:20:54.141Z,29.70
2017-07-15T14:23:21.671Z,29.00
2017-07-15T14:25:49.264Z,29.20
2017-07-15T14:28:16.844Z,30.60
2017-07-15T14:30:44.539Z,32.20
2017-07-15T14:33:12.115Z,32.80
2017-07-15T14:35:40.095Z,35.00
2017-07-15T14:38:07.639Z,35.40
2017-07-15T14:40:35.164Z,36.20
2017-07-15T14:43:02.756Z,35.70
2017-07-15T14:45:30.900Z,35.10
2017-07-15T14:47:58.432Z,34.50
2017-07-15T14:50:25.983Z,34.20
2017-07-15T14:52:53.908Z,34.90
2017-07-15T14:55:21.446Z,35.10
2017-07-15T14:57:49.318Z,34.00
2017-07-15T15:00:16.828Z,33.40
2017-07-15T15:02:44.344Z,35.30
2017-07-15T15:05:11.956Z,35.50
2017-07-15T15:07:39.747Z,36.50
2017-07-15T15:10:07.581Z,37.50
2017-07-15T15:12:35.255Z,36.10
2017-07-15T15:15:02.776Z,35.00
2017-07-15T15:17:30.300Z,35.60
2017-07-15T15:19:57.875Z,34.90
2017-07-15T15:22:25.506Z,35.60
2017-07-15T15:24:53.045Z,36.50
2017-07-15T15:27:20.619Z,37.50
2017-07-15T15:29:48.124Z,36.60
2017-07-15T15:32:15.683Z,36.10
2017-07-15T15:34:43.240Z,36.20
2017-07-15T15:37:10.745Z,35.60
2017-07-15T15:39:38.319Z,35.80
2017-07-15T15:42:05.899Z,36.10
2017-07-15T15:44:33.491Z,34.80
2017-07-15T15:47:01.119Z,34.30
2017-07-15T15:49:28.663Z,35.30
2017-07-15T15:51:56.168Z,34.30
2017-07-15T15:54:25.020Z,33.70
2017-07-15T15:56:52.738Z,33.10
2017-07-15T15:59:20.319Z,32.90
2017-07-15T16:01:48.139Z,31.40
2017-07-15T16:04:15.966Z,34.10
2017-07-15T16:06:43.544Z,34.70
2017-07-15T16:09:11.305Z,34.60
2017-07-15T16:11:39.911Z,36.80
2017-07-15T16:14:07.564Z,36.40
2017-07-15T16:16:35.295Z,35.60
2017-07-15T16:19:03.151Z,36.20
2017-07-15T16:21:30.989Z,36.80
2017-07-15T16:23:58.771Z,36.40
2017-07-15T16:26:26.460Z,36.20
2017-07-15T16:28:54.292Z,36.40
2017-07-15T16:31:22.495Z,38.00
2017-07-15T16:33:50.263Z,37.80
2017-07-15T16:36:17.901Z,38.00
2017-07-15T16:38:45.612Z,38.70
2017-07-15T16:41:13.191Z,37.60
2017-07-15T16:43:40.806Z,36.70
2017-07-15T16:46:08.512Z,36.80
2017-07-15T16:48:36.311Z,37.60
2017-07-15T16:51:03.852Z,38.60
2017-07-15T16:53:32.383Z,38.60
2017-07-15T16:56:00.320Z,38.80
2017-07-15T16:58:28.103Z,40.00
2017-07-15T17:00:55.626Z,39.90
2017-07-15T17:03:23.401Z,39.90
2017-07-15T17:05:50.915Z,39.40
2017-07-15T17:08:18.424Z,39.00
2017-07-15T17:10:45.985Z,39.80
2017-07-15T17:13:13.566Z,40.20
2017-07-15T17:15:41.103Z,41.30
2017-07-15T17:18:08.653Z,41.80
2017-07-15T17:20:36.559Z,42.10
2017-07-15T17:23:04.102Z,42.50
2017-07-15T17:25:31.684Z,42.00
2017-07-15T17:27:59.207Z,42.00
2017-07-15T17:30:26.798Z,42.20
2017-07-15T17:32:54.430Z,43.30
2017-07-15T17:35:22.068Z,42.40
2017-07-15T17:37:49.644Z,42.80
2017-07-15T17:40:17.439Z,42.20
2017-07-15T17:42:45.078Z,42.20
2017-07-15T17:45:12.683Z,42.90
2017-07-15T17:47:40.406Z,42.90
2017-07-15T17:50:08.235Z,43.00
2017-07-15T17:52:35.839Z,43.20
2017-07-15T17:55:03.687Z,42.70
2017-07-15T17:57:31.459Z,43.20
2017-07-15T17:59:59.017Z,42.90
2017-07-15T18:02:26.816Z,43.20
2017-07-15T18:04:54.629Z,43.00
2017-07-15T18:07:22.194Z,42.90
2017-07-15T18:09:50.007Z,43.00
2017-07-15T18:12:17.508Z,43.70
2017-07-15T18:14:45.254Z,44.50
2017-07-15T18:17:12.907Z,43.50
2017-07-15T18:19:40.636Z,44.10
2017-07-15T18:22:08.181Z,44.60
2017-07-15T18:24:36.072Z,44.80
2017-07-15T18:27:03.633Z,45.60
2017-07-15T18:29:31.148Z,46.20
2017-07-15T18:31:59.627Z,46.40
2017-07-15T18:34:27.181Z,46.70
2017-07-15T18:36:54.708Z,46.80
2017-07-15T18:39:22.329Z,46.80
2017-07-15T18:41:49.832Z,47.10
2017-07-15T18:44:17.336Z,47.00
2017-07-15T18:46:45.283Z,46.70
2017-07-15T18:49:12.979Z,47.00
2017-07-15T18:51:40.488Z,46.80
2017-07-15T18:54:08.180Z,47.40
2017-07-15T18:56:35.692Z,47.40
2017-07-15T18:59:03.198Z,48.10
2017-07-15T19:01:31.113Z,48.60
2017-07-15T19:03:58.618Z,48.50
2017-07-15T19:06:26.116Z,49.10
2017-07-15T19:08:53.785Z,49.10
2017-07-15T19:11:21.359Z,49.60
2017-07-15T19:13:48.876Z,49.60
2017-07-15T19:16:16.412Z,49.70
2017-07-15T19:18:44.294Z,49.70
2017-07-15T19:21:11.866Z,50.00
2017-07-15T19:23:39.389Z,50.50
2017-07-15T19:26:06.948Z,50.60
2017-07-15T19:28:34.581Z,51.00
2017-07-15T19:31:02.175Z,51.00
2017-07-15T19:33:29.760Z,51.00
2017-07-15T19:35:57.273Z,51.50
2017-07-15T19:38:24.852Z,52.20
2017-07-15T19:40:53.197Z,53.70
2017-07-15T19:43:20.993Z,52.50
2017-07-15T19:45:48.505Z,53.50
2017-07-15T19:48:16.120Z,53.70
2017-07-15T19:50:43.728Z,54.90
2017-07-15T19:53:11.557Z,54.40
2017-07-15T19:55:39.829Z,55.30
2017-07-15T19:58:07.447Z,55.90
2017-07-15T20:00:35.209Z,57.70
2017-07-15T20:03:02.996Z,57.50
2017-07-15T20:05:30.604Z,57.70
2017-07-15T20:07:58.272Z,57.20
2017-07-15T20:10:26.653Z,59.30
2017-07-15T20:12:54.176Z,60.60
2017-07-15T20:15:21.820Z,59.70
2017-07-15T20:17:49.420Z,61.50
2017-07-15T20:20:17.051Z,63.40
2017-07-15T20:22:45.027Z,62.70
2017-07-15T20:25:13.250Z,63.60
2017-07-15T20:27:41.526Z,64.80
2017-07-15T20:30:09.209Z,64.80
2017-07-15T20:32:36.921Z,66.00
2017-07-15T20:35:04.456Z,66.70
2017-07-15T20:37:31.972Z,67.80
2017-07-15T20:40:00.095Z,67.50
2017-07-15T20:42:27.608Z,68.10
2017-07-15T20:44:55.135Z,69.30
2017-07-15T20:47:22.848Z,69.40
2017-07-15T20:49:50.368Z,70.00
2017-07-15T20:52:23.576Z,71.00
2017-07-15T20:54:51.094Z,71.30
2017-07-15T20:57:18.632Z,71.80
2017-07-15T20:59:46.202Z,72.70
2017-07-15T21:02:13.796Z,72.70
2017-07-15T21:04:41.307Z,73.20
2017-07-15T21:07:08.867Z,73.30
2017-07-15T21:09:36.527Z,74.00
2017-07-15T21:12:04.226Z,73.10
2017-07-15T21:14:31.745Z,73.60
2017-07-15T21:16:59.318Z,75.70
2017-07-15T21:19:27.647Z,75.70
2017-07-15T21:21:55.176Z,76.00
2017-07-15T21:24:22.696Z,76.60
2017-07-15T21:26:50.248Z,77.80
2017-07-15T21:29:17.772Z,78.70
2017-07-15T21:31:46.652Z,79.60
2017-07-15T21:34:14.200Z,79.30
2017-07-15T21:36:41.575Z,80.00
2017-07-15T21:39:09.004Z,80.10
2017-07-15T21:41:36.520Z,80.30
2017-07-15T21:44:04.410Z,80.90
2017-07-15T21:46:31.914Z,81.00
2017-07-15T21:48:59.536Z,82.10
2017-07-15T21:51:27.095Z,83.70
2017-07-15T21:53:54.643Z,84.10
2017-07-15T21:56:22.171Z,84.00
2017-07-15T21:58:49.780Z,84.50
2017-07-15T22:01:17.321Z,86.00
2017-07-15T22:03:44.861Z,86.10
2017-07-15T22:06:12.415Z,85.90
2017-07-15T22:08:39.930Z,86.40
2017-07-15T22:11:07.599Z,86.60
2017-07-15T22:13:35.179Z,87.30
2017-07-15T22:16:02.717Z,87.50
2017-07-15T22:18:30.264Z,87.10
2017-07-15T22:20:58.172Z,86.90
2017-07-15T22:23:25.691Z,86.20
2017-07-15T22:25:53.199Z,86.80
2017-07-15T22:28:20.747Z,86.90
2017-07-15T22:30:48.346Z,88.10
2017-07-15T22:33:15.860Z,88.80
2017-07-15T22:35:43.720Z,89.20
2017-07-15T22:38:11.292Z,89.30
2017-07-15T22:40:38.819Z,90.00
2017-07-15T22:43:06.508Z,90.40
2017-07-15T22:45:34.031Z,91.00
2017-07-15T22:48:01.561Z,90.90
2017-07-15T22:50:29.117Z,90.30
2017-07-15T22:52:56.638Z,89.90
2017-07-15T22:55:24.189Z,90.50
2017-07-15T22:57:51.784Z,90.00
2017-07-15T23:00:19.307Z,90.00
2017-07-15T23:02:46.953Z,90.80
2017-07-15T23:05:14.904Z,90.90
2017-07-15T23:07:42.532Z,91.40
2017-07-15T23:10:10.160Z,91.40
2017-07-15T23:12:38.224Z,92.00
2017-07-15T23:15:05.847Z,91.90
2017-07-15T23:17:33.416Z,92.30
2017-07-15T23:20:01.004Z,92.90
2017-07-15T23:22:28.507Z,93.20
2017-07-15T23:24:56.009Z,93.20
2017-07-15T23:27:23.831Z,93.10
2017-07-15T23:29:51.410Z,93.00
2017-07-15T23:32:18.929Z,92.70
2017-07-15T23:34:46.485Z,92.80
2017-07-15T23:37:13.987Z,92.80
2017-07-15T23:39:41.592Z,93.10
2017-07-15T23:42:09.196Z,93.10
2017-07-15T23:44:36.715Z,93.30
2017-07-15T23:47:04.228Z,93.40
2017-07-15T23:49:32.071Z,93.40
2017-07-15T23:51:59.584Z,93.80
2017-07-15T23:54:27.096Z,94.10
2017-07-15T23:56:54.624Z,94.40
2017-07-15T23:59:22.193Z,94.50
